sensor_id;sensor_type;location;lat;lon;timestamp;temperature;humidity
4985;DHT22;2509;49.902;8.600;2023-04-01T00:02:18;10.60;99.90
4985;DHT22;2509;49.902;8.600;2023-04-01T00:05:20;10.60;99.90
4985;DHT22;2509;49.902;8.600;2023-04-01T00:08:23;10.70;99.90
4985;DHT22;2509;49.902;8.600;2023-04-01T00:11:25;10.60;99.90
4985;DHT22;2509;49.902;8.600;2023-04-01T00:14:28;10.60;99.90
4985;DHT22;2509;49.902;8.600;2023-04-01T00:17:30;10.60;99.90
4985;DHT22;2509;49.902;8.600;2023-04-01T00:20:32;10.60;99.90
4985;DHT22;2509;49.902;8.600;2023-04-01T00:23:35;10.60;99.90
4985;DHT22;2509;49.902;8.600;2023-04-01T00:26:37;10.60;99.90
4985;DHT22;2509;49.902;8.600;2023-04-01T00:29:41;10.60;99.90
4985;DHT22;2509;49.902;8.600;2023-04-01T00:32:43;10.60;99.90
4985;DHT22;2509;49.902;8.600;2023-04-01T00:35:46;10.60;99.90
4985;DHT22;2509;49.902;8.600;2023-04-01T00:38:49;10.60;99.90
4985;DHT22;2509;49.902;8.600;2023-04-01T00:41:52;10.60;99.90
4985;DHT22;2509;49.902;8.600;2023-04-01T00:44:54;10.60;99.90
4985;DHT22;2509;49.902;8.600;2023-04-01T00:47:59;10.60;99.90
4985;DHT22;2509;49.902;8.600;2023-04-01T00:51:05;10.60;99.90
4985;DHT22;2509;49.902;8.600;2023-04-01T00:54:09;10.60;99.90
4985;DHT22;2509;49.902;8.600;2023-04-01T00:57:13;10.60;99.90
4985;DHT22;2509;49.902;8.600;2023-04-01T01:00:16;10.50;99.90
4985;DHT22;2509;49.902;8.600;2023-04-01T01:03:18;10.50;99.90
4985;DHT22;2509;49.902;8.600;2023-04-01T01:06:30;10.50;99.90
4985;DHT22;2509;49.902;8.600;2023-04-01T01:09:47;10.50;99.90
4985;DHT22;2509;49.902;8.600;2023-04-01T01:12:54;10.50;99.90
4985;DHT22;2509;49.902;8.600;2023-04-01T01:16:03;10.50;99.90
4985;DHT22;2509;49.902;8.600;2023-04-01T01:19:16;10.60;99.90
4985;DHT22;2509;49.902;8.600;2023-04-01T01:22:36;10.50;99.90
4985;DHT22;2509;49.902;8.600;2023-04-01T01:25:48;10.50;99.90
4985;DHT22;2509;49.902;8.600;2023-04-01T01:29:00;10.50;99.90
4985;DHT22;2509;49.902;8.600;2023-04-01T01:32:19;10.50;99.90
4985;DHT22;2509;49.902;8.600;2023-04-01T01:35:28;10.60;99.90
4985;DHT22;2509;49.902;8.600;2023-04-01T01:38:34;10.50;99.90
4985;DHT22;2509;49.902;8.600;2023-04-01T01:41:38;10.50;99.90
4985;DHT22;2509;49.902;8.600;2023-04-01T01:44:49;10.50;99.90
4985;DHT22;2509;49.902;8.600;2023-04-01T01:47:52;10.50;99.90
4985;DHT22;2509;49.902;8.600;2023-04-01T01:50:56;10.50;99.90
4985;DHT22;2509;49.902;8.600;2023-04-01T01:53:58;10.50;99.90
4985;DHT22;2509;49.902;8.600;2023-04-01T01:57:06;10.50;99.90
4985;DHT22;2509;49.902;8.600;2023-04-01T02:00:10;10.50;99.90
4985;DHT22;2509;49.902;8.600;2023-04-01T02:03:15;10.50;99.90
4985;DHT22;2509;49.902;8.600;2023-04-01T02:06:22;10.50;99.90
4985;DHT22;2509;49.902;8.600;2023-04-01T02:09:25;10.50;99.90
4985;DHT22;2509;49.902;8.600;2023-04-01T02:12:28;10.50;99.90
4985;DHT22;2509;49.902;8.600;2023-04-01T02:15:32;10.50;99.90
4985;DHT22;2509;49.902;8.600;2023-04-01T02:18:36;10.50;99.90
4985;DHT22;2509;49.902;8.600;2023-04-01T02:21:42;10.40;99.90
4985;DHT22;2509;49.902;8.600;2023-04-01T02:24:44;10.40;99.90
4985;DHT22;2509;49.902;8.600;2023-04-01T02:27:47;10.40;99.90
4985;DHT22;2509;49.902;8.600;2023-04-01T02:30:50;10.40;99.90
4985;DHT22;2509;49.902;8.600;2023-04-01T02:33:52;10.40;99.90
4985;DHT22;2509;49.902;8.600;2023-04-01T02:36:57;10.40;99.90
4985;DHT22;2509;49.902;8.600;2023-04-01T02:40:00;10.40;99.90
4985;DHT22;2509;49.902;8.600;2023-04-01T02:43:02;10.30;99.90
4985;DHT22;2509;49.902;8.600;2023-04-01T02:46:04;10.30;99.90
4985;DHT22;2509;49.902;8.600;2023-04-01T02:49:06;10.30;99.90
4985;DHT22;2509;49.902;8.600;2023-04-01T02:52:09;10.30;99.90
4985;DHT22;2509;49.902;8.600;2023-04-01T02:55:11;10.20;99.90
4985;DHT22;2509;49.902;8.600;2023-04-01T02:58:13;10.20;99.90
4985;DHT22;2509;49.902;8.600;2023-04-01T03:01:14;10.20;99.90
4985;DHT22;2509;49.902;8.600;2023-04-01T03:04:16;10.20;99.90
4985;DHT22;2509;49.902;8.600;2023-04-01T03:07:19;10.20;99.90
4985;DHT22;2509;49.902;8.600;2023-04-01T03:10:21;10.20;99.90
4985;DHT22;2509;49.902;8.600;2023-04-01T03:13:23;10.20;99.90
4985;DHT22;2509;49.902;8.600;2023-04-01T03:16:25;10.20;99.90
4985;DHT22;2509;49.902;8.600;2023-04-01T03:19:27;10.20;99.90
4985;DHT22;2509;49.902;8.600;2023-04-01T03:22:30;10.20;99.90
4985;DHT22;2509;49.902;8.600;2023-04-01T03:25:32;10.20;99.90
4985;DHT22;2509;49.902;8.600;2023-04-01T03:28:33;10.20;99.90
4985;DHT22;2509;49.902;8.600;2023-04-01T03:31:35;10.30;99.90
4985;DHT22;2509;49.902;8.600;2023-04-01T03:34:37;10.30;99.90
4985;DHT22;2509;49.902;8.600;2023-04-01T03:37:40;10.30;99.90
4985;DHT22;2509;49.902;8.600;2023-04-01T03:40:42;10.20;99.90
4985;DHT22;2509;49.902;8.600;2023-04-01T03:43:44;10.20;99.90
4985;DHT22;2509;49.902;8.600;2023-04-01T03:46:46;10.20;99.90
4985;DHT22;2509;49.902;8.600;2023-04-01T03:49:48;10.20;99.90
4985;DHT22;2509;49.902;8.600;2023-04-01T03:52:51;10.30;99.90
4985;DHT22;2509;49.902;8.600;2023-04-01T03:55:53;10.30;99.90
4985;DHT22;2509;49.902;8.600;2023-04-01T03:58:56;10.30;99.90
4985;DHT22;2509;49.902;8.600;2023-04-01T04:01:58;10.30;99.90
4985;DHT22;2509;49.902;8.600;2023-04-01T04:04:59;10.30;99.90
4985;DHT22;2509;49.902;8.600;2023-04-01T04:08:03;10.30;99.90
4985;DHT22;2509;49.902;8.600;2023-04-01T04:11:05;10.30;99.90
4985;DHT22;2509;49.902;8.600;2023-04-01T04:14:06;10.30;99.90
4985;DHT22;2509;49.902;8.600;2023-04-01T04:17:10;10.30;99.90
4985;DHT22;2509;49.902;8.600;2023-04-01T04:20:14;10.30;99.90
4985;DHT22;2509;49.902;8.600;2023-04-01T04:23:18;10.30;99.90
4985;DHT22;2509;49.902;8.600;2023-04-01T04:26:19;10.30;99.90
4985;DHT22;2509;49.902;8.600;2023-04-01T04:29:21;10.30;99.90
4985;DHT22;2509;49.902;8.600;2023-04-01T04:32:23;10.30;99.90
4985;DHT22;2509;49.902;8.600;2023-04-01T04:35:25;10.30;99.90
4985;DHT22;2509;49.902;8.600;2023-04-01T04:38:28;10.40;99.90
4985;DHT22;2509;49.902;8.600;2023-04-01T04:41:30;10.30;99.90
4985;DHT22;2509;49.902;8.600;2023-04-01T04:44:32;10.30;99.90
4985;DHT22;2509;49.902;8.600;2023-04-01T04:47:34;10.40;99.90
4985;DHT22;2509;49.902;8.600;2023-04-01T04:50:36;10.40;99.90
4985;DHT22;2509;49.902;8.600;2023-04-01T04:53:39;10.40;99.90
4985;DHT22;2509;49.902;8.600;2023-04-01T04:56:41;10.40;99.90
4985;DHT22;2509;49.902;8.600;2023-04-01T04:59:43;10.40;99.90
4985;DHT22;2509;49.902;8.600;2023-04-01T05:02:45;10.40;99.90
4985;DHT22;2509;49.902;8.600;2023-04-01T05:05:50;10.40;99.90
4985;DHT22;2509;49.902;8.600;2023-04-01T05:08:54;10.40;99.90
4985;DHT22;2509;49.902;8.600;2023-04-01T05:11:55;10.40;99.90
4985;DHT22;2509;49.902;8.600;2023-04-01T05:14:57;10.40;99.90
4985;DHT22;2509;49.902;8.600;2023-04-01T05:17:59;10.50;99.90
4985;DHT22;2509;49.902;8.600;2023-04-01T05:21:01;10.50;99.90
4985;DHT22;2509;49.902;8.600;2023-04-01T05:24:07;10.50;99.90
4985;DHT22;2509;49.902;8.600;2023-04-01T05:27:09;10.40;99.90
4985;DHT22;2509;49.902;8.600;2023-04-01T05:30:11;10.40;99.90
4985;DHT22;2509;49.902;8.600;2023-04-01T05:33:13;10.40;99.90
4985;DHT22;2509;49.902;8.600;2023-04-01T05:36:16;10.40;99.90
4985;DHT22;2509;49.902;8.600;2023-04-01T05:39:19;10.30;99.90
4985;DHT22;2509;49.902;8.600;2023-04-01T05:42:21;10.30;99.90
4985;DHT22;2509;49.902;8.600;2023-04-01T05:45:23;10.30;99.90
4985;DHT22;2509;49.902;8.600;2023-04-01T05:48:25;10.30;99.90
4985;DHT22;2509;49.902;8.600;2023-04-01T05:51:27;10.30;99.90
4985;DHT22;2509;49.902;8.600;2023-04-01T05:54:30;10.30;99.90
4985;DHT22;2509;49.902;8.600;2023-04-01T05:57:32;10.30;99.90
4985;DHT22;2509;49.902;8.600;2023-04-01T06:00:34;10.30;99.90
4985;DHT22;2509;49.902;8.600;2023-04-01T06:03:36;10.30;99.90
4985;DHT22;2509;49.902;8.600;2023-04-01T06:06:39;10.30;99.90
4985;DHT22;2509;49.902;8.600;2023-04-01T06:09:43;10.30;99.90
4985;DHT22;2509;49.902;8.600;2023-04-01T06:12:56;10.30;99.90
4985;DHT22;2509;49.902;8.600;2023-04-01T06:16:18;10.40;99.90
4985;DHT22;2509;49.902;8.600;2023-04-01T06:19:29;10.40;99.90
4985;DHT22;2509;49.902;8.600;2023-04-01T06:22:47;10.30;99.90
4985;DHT22;2509;49.902;8.600;2023-04-01T06:26:12;10.40;99.90
4985;DHT22;2509;49.902;8.600;2023-04-01T06:29:42;10.40;99.90
4985;DHT22;2509;49.902;8.600;2023-04-01T06:32:57;10.40;99.90
4985;DHT22;2509;49.902;8.600;2023-04-01T06:36:15;10.40;99.90
4985;DHT22;2509;49.902;8.600;2023-04-01T06:39:42;10.50;99.90
4985;DHT22;2509;49.902;8.600;2023-04-01T06:42:55;10.50;99.90
4985;DHT22;2509;49.902;8.600;2023-04-01T06:46:07;10.50;99.90
4985;DHT22;2509;49.902;8.600;2023-04-01T06:49:21;10.50;99.90
4985;DHT22;2509;49.902;8.600;2023-04-01T06:52:34;10.50;99.90
4985;DHT22;2509;49.902;8.600;2023-04-01T06:55:42;10.50;99.90
4985;DHT22;2509;49.902;8.600;2023-04-01T06:58:51;10.50;99.90
4985;DHT22;2509;49.902;8.600;2023-04-01T07:01:57;10.50;99.90
4985;DHT22;2509;49.902;8.600;2023-04-01T07:05:01;10.50;99.90
4985;DHT22;2509;49.902;8.600;2023-04-01T07:08:05;10.40;99.90
4985;DHT22;2509;49.902;8.600;2023-04-01T07:11:11;10.40;99.90
4985;DHT22;2509;49.902;8.600;2023-04-01T07:14:22;10.40;99.90
4985;DHT22;2509;49.902;8.600;2023-04-01T07:17:28;10.40;99.90
4985;DHT22;2509;49.902;8.600;2023-04-01T07:20:32;10.40;99.90
4985;DHT22;2509;49.902;8.600;2023-04-01T07:23:39;10.50;99.90
4985;DHT22;2509;49.902;8.600;2023-04-01T07:26:43;10.50;99.90
4985;DHT22;2509;49.902;8.600;2023-04-01T07:29:47;10.60;99.90
4985;DHT22;2509;49.902;8.600;2023-04-01T07:32:51;10.60;99.90
4985;DHT22;2509;49.902;8.600;2023-04-01T07:35:58;10.70;99.90
4985;DHT22;2509;49.902;8.600;2023-04-01T07:39:12;10.70;99.90
4985;DHT22;2509;49.902;8.600;2023-04-01T07:42:24;10.80;99.90
4985;DHT22;2509;49.902;8.600;2023-04-01T07:45:32;10.80;99.90
4985;DHT22;2509;49.902;8.600;2023-04-01T07:48:41;10.90;99.90
4985;DHT22;2509;49.902;8.600;2023-04-01T07:51:53;10.90;99.90
4985;DHT22;2509;49.902;8.600;2023-04-01T07:55:04;10.90;99.90
4985;DHT22;2509;49.902;8.600;2023-04-01T07:58:15;10.90;99.90
4985;DHT22;2509;49.902;8.600;2023-04-01T08:01:25;10.90;99.90
4985;DHT22;2509;49.902;8.600;2023-04-01T08:04:38;11.00;99.90
4985;DHT22;2509;49.902;8.600;2023-04-01T08:07:47;11.00;99.90
4985;DHT22;2509;49.902;8.600;2023-04-01T08:10:53;11.10;99.90
4985;DHT22;2509;49.902;8.600;2023-04-01T08:14:04;11.10;99.90
4985;DHT22;2509;49.902;8.600;2023-04-01T08:17:16;11.10;99.90
4985;DHT22;2509;49.902;8.600;2023-04-01T08:20:28;11.10;99.90
4985;DHT22;2509;49.902;8.600;2023-04-01T08:23:38;11.20;99.90
4985;DHT22;2509;49.902;8.600;2023-04-01T08:26:47;11.10;99.90
4985;DHT22;2509;49.902;8.600;2023-04-01T08:29:52;11.10;99.90
4985;DHT22;2509;49.902;8.600;2023-04-01T08:32:59;11.00;99.90
4985;DHT22;2509;49.902;8.600;2023-04-01T08:36:06;10.90;99.90
4985;DHT22;2509;49.902;8.600;2023-04-01T08:39:12;10.80;99.90
4985;DHT22;2509;49.902;8.600;2023-04-01T08:42:31;10.80;99.90
4985;DHT22;2509;49.902;8.600;2023-04-01T08:46:17;10.70;99.90
4985;DHT22;2509;49.902;8.600;2023-04-01T08:49:51;10.60;99.90
4985;DHT22;2509;49.902;8.600;2023-04-01T08:53:05;10.50;99.90
4985;DHT22;2509;49.902;8.600;2023-04-01T08:56:14;10.60;99.90
4985;DHT22;2509;49.902;8.600;2023-04-01T08:59:42;10.60;99.90
4985;DHT22;2509;49.902;8.600;2023-04-01T09:03:09;10.70;99.90
4985;DHT22;2509;49.902;8.600;2023-04-01T09:06:33;10.70;99.90
4985;DHT22;2509;49.902;8.600;2023-04-01T09:09:58;10.70;99.90
4985;DHT22;2509;49.902;8.600;2023-04-01T09:13:24;10.70;99.90
4985;DHT22;2509;49.902;8.600;2023-04-01T09:16:42;10.70;99.90
4985;DHT22;2509;49.902;8.600;2023-04-01T09:20:04;10.70;99.90
4985;DHT22;2509;49.902;8.600;2023-04-01T09:23:22;10.80;99.90
4985;DHT22;2509;49.902;8.600;2023-04-01T09:26:42;10.80;99.90
4985;DHT22;2509;49.902;8.600;2023-04-01T09:30:10;10.80;99.90
4985;DHT22;2509;49.902;8.600;2023-04-01T09:33:53;10.80;99.90
4985;DHT22;2509;49.902;8.600;2023-04-01T09:37:18;10.80;99.90
4985;DHT22;2509;49.902;8.600;2023-04-01T09:40:33;10.80;99.90
4985;DHT22;2509;49.902;8.600;2023-04-01T09:43:57;10.70;99.90
4985;DHT22;2509;49.902;8.600;2023-04-01T09:47:09;10.60;99.90
4985;DHT22;2509;49.902;8.600;2023-04-01T09:50:31;10.60;99.90
4985;DHT22;2509;49.902;8.600;2023-04-01T09:53:47;10.50;99.90
4985;DHT22;2509;49.902;8.600;2023-04-01T09:57:13;10.50;99.90
4985;DHT22;2509;49.902;8.600;2023-04-01T10:00:44;10.40;99.90
4985;DHT22;2509;49.902;8.600;2023-04-01T10:11:52;10.40;99.90
4985;DHT22;2509;49.902;8.600;2023-04-01T10:23:00;10.50;99.90
4985;DHT22;2509;49.902;8.600;2023-04-01T10:26:15;10.60;99.90
4985;DHT22;2509;49.902;8.600;2023-04-01T10:30:05;10.70;99.90
4985;DHT22;2509;49.902;8.600;2023-04-01T10:37:29;10.70;99.90
4985;DHT22;2509;49.902;8.600;2023-04-01T10:40:50;10.80;99.90
4985;DHT22;2509;49.902;8.600;2023-04-01T10:44:31;10.80;99.90
4985;DHT22;2509;49.902;8.600;2023-04-01T10:48:21;10.80;99.90
4985;DHT22;2509;49.902;8.600;2023-04-01T10:51:47;10.80;99.90
4985;DHT22;2509;49.902;8.600;2023-04-01T10:55:14;10.80;99.90
4985;DHT22;2509;49.902;8.600;2023-04-01T10:58:51;10.80;99.90
4985;DHT22;2509;49.902;8.600;2023-04-01T11:06:12;10.90;99.90
4985;DHT22;2509;49.902;8.600;2023-04-01T11:10:15;10.90;99.90
4985;DHT22;2509;49.902;8.600;2023-04-01T11:13:59;10.90;99.90
4985;DHT22;2509;49.902;8.600;2023-04-01T11:17:42;11.00;99.90
4985;DHT22;2509;49.902;8.600;2023-04-01T11:24:55;11.10;99.90
4985;DHT22;2509;49.902;8.600;2023-04-01T11:28:20;11.10;99.90
4985;DHT22;2509;49.902;8.600;2023-04-01T11:31:38;11.10;99.90
4985;DHT22;2509;49.902;8.600;2023-04-01T11:34:59;11.10;99.90
4985;DHT22;2509;49.902;8.600;2023-04-01T11:38:15;11.10;99.90
4985;DHT22;2509;49.902;8.600;2023-04-01T11:41:27;11.20;99.90
4985;DHT22;2509;49.902;8.600;2023-04-01T11:44:37;11.20;99.90
4985;DHT22;2509;49.902;8.600;2023-04-01T11:51:36;11.10;99.90
4985;DHT22;2509;49.902;8.600;2023-04-01T11:54:58;11.20;99.90
4985;DHT22;2509;49.902;8.600;2023-04-01T12:01:44;11.10;99.90
4985;DHT22;2509;49.902;8.600;2023-04-01T12:04:58;11.10;99.90
4985;DHT22;2509;49.902;8.600;2023-04-01T12:08:23;11.10;99.90
4985;DHT22;2509;49.902;8.600;2023-04-01T12:11:34;11.10;99.90
4985;DHT22;2509;49.902;8.600;2023-04-01T12:14:44;11.10;99.90
4985;DHT22;2509;49.902;8.600;2023-04-01T12:17:56;11.10;99.90
4985;DHT22;2509;49.902;8.600;2023-04-01T12:21:03;11.00;99.90
4985;DHT22;2509;49.902;8.600;2023-04-01T12:24:29;11.00;99.90
4985;DHT22;2509;49.902;8.600;2023-04-01T12:27:41;11.00;99.90
4985;DHT22;2509;49.902;8.600;2023-04-01T12:30:53;11.00;99.90
4985;DHT22;2509;49.902;8.600;2023-04-01T12:34:30;11.10;99.90
4985;DHT22;2509;49.902;8.600;2023-04-01T12:37:41;11.20;99.90
4985;DHT22;2509;49.902;8.600;2023-04-01T12:40:54;11.30;99.90
4985;DHT22;2509;49.902;8.600;2023-04-01T12:47:44;11.40;99.90
4985;DHT22;2509;49.902;8.600;2023-04-01T12:51:26;11.40;99.90
4985;DHT22;2509;49.902;8.600;2023-04-01T13:02:03;11.50;99.90
4985;DHT22;2509;49.902;8.600;2023-04-01T13:05:25;11.40;99.90
4985;DHT22;2509;49.902;8.600;2023-04-01T13:08:38;11.40;99.90
4985;DHT22;2509;49.902;8.600;2023-04-01T13:11:50;11.30;99.90
4985;DHT22;2509;49.902;8.600;2023-04-01T13:18:30;11.20;99.90
4985;DHT22;2509;49.902;8.600;2023-04-01T13:21:40;11.20;99.90
4985;DHT22;2509;49.902;8.600;2023-04-01T13:24:51;11.20;99.90
4985;DHT22;2509;49.902;8.600;2023-04-01T13:28:02;11.10;99.90
4985;DHT22;2509;49.902;8.600;2023-04-01T13:31:12;11.10;99.90
4985;DHT22;2509;49.902;8.600;2023-04-01T13:34:35;11.10;99.90
4985;DHT22;2509;49.902;8.600;2023-04-01T13:37:50;11.20;99.90
4985;DHT22;2509;49.902;8.600;2023-04-01T13:40:59;11.20;99.90
4985;DHT22;2509;49.902;8.600;2023-04-01T13:44:09;11.30;99.90
4985;DHT22;2509;49.902;8.600;2023-04-01T13:47:36;11.30;99.90
4985;DHT22;2509;49.902;8.600;2023-04-01T13:51:08;11.50;99.90
4985;DHT22;2509;49.902;8.600;2023-04-01T13:57:52;11.70;99.90
4985;DHT22;2509;49.902;8.600;2023-04-01T14:01:06;11.70;99.90
4985;DHT22;2509;49.902;8.600;2023-04-01T14:04:20;11.80;99.90
4985;DHT22;2509;49.902;8.600;2023-04-01T14:07:49;11.90;99.90
4985;DHT22;2509;49.902;8.600;2023-04-01T14:10:58;12.00;99.90
4985;DHT22;2509;49.902;8.600;2023-04-01T14:14:15;12.00;99.90
4985;DHT22;2509;49.902;8.600;2023-04-01T14:17:31;11.90;99.90
4985;DHT22;2509;49.902;8.600;2023-04-01T14:20:40;11.90;99.90
4985;DHT22;2509;49.902;8.600;2023-04-01T14:27:38;12.00;99.90
4985;DHT22;2509;49.902;8.600;2023-04-01T14:30:53;12.10;99.90
4985;DHT22;2509;49.902;8.600;2023-04-01T14:34:06;12.10;99.90
4985;DHT22;2509;49.902;8.600;2023-04-01T14:37:23;12.10;99.90
4985;DHT22;2509;49.902;8.600;2023-04-01T14:40:32;12.20;99.90
4985;DHT22;2509;49.902;8.600;2023-04-01T14:47:49;12.00;99.90
4985;DHT22;2509;49.902;8.600;2023-04-01T14:51:38;11.80;99.90
4985;DHT22;2509;49.902;8.600;2023-04-01T14:55:15;11.60;99.90
4985;DHT22;2509;49.902;8.600;2023-04-01T15:02:03;11.70;99.90
4985;DHT22;2509;49.902;8.600;2023-04-01T15:05:16;11.80;99.90
4985;DHT22;2509;49.902;8.600;2023-04-01T15:08:24;11.80;99.90
4985;DHT22;2509;49.902;8.600;2023-04-01T15:11:36;11.80;99.90
4985;DHT22;2509;49.902;8.600;2023-04-01T15:15:04;11.80;99.90
4985;DHT22;2509;49.902;8.600;2023-04-01T15:18:17;11.80;99.90
4985;DHT22;2509;49.902;8.600;2023-04-01T15:21:37;11.70;99.90
4985;DHT22;2509;49.902;8.600;2023-04-01T15:24:46;11.70;99.90
4985;DHT22;2509;49.902;8.600;2023-04-01T15:27:51;11.70;99.90
4985;DHT22;2509;49.902;8.600;2023-04-01T15:31:01;11.70;99.90
4985;DHT22;2509;49.902;8.600;2023-04-01T15:34:22;11.70;99.90
4985;DHT22;2509;49.902;8.600;2023-04-01T15:37:36;11.70;99.90
4985;DHT22;2509;49.902;8.600;2023-04-01T15:40:44;11.70;99.90
4985;DHT22;2509;49.902;8.600;2023-04-01T15:43:48;11.70;99.90
4985;DHT22;2509;49.902;8.600;2023-04-01T15:46:52;11.80;99.90
4985;DHT22;2509;49.902;8.600;2023-04-01T15:49:58;11.80;99.90
4985;DHT22;2509;49.902;8.600;2023-04-01T15:53:16;11.80;99.90
4985;DHT22;2509;49.902;8.600;2023-04-01T15:56:28;11.80;99.90
4985;DHT22;2509;49.902;8.600;2023-04-01T16:00:02;11.80;99.90
4985;DHT22;2509;49.902;8.600;2023-04-01T16:03:19;11.80;99.90
4985;DHT22;2509;49.902;8.600;2023-04-01T16:06:53;11.80;99.90
4985;DHT22;2509;49.902;8.600;2023-04-01T16:10:10;11.80;99.90
4985;DHT22;2509;49.902;8.600;2023-04-01T16:13:26;11.90;99.90
4985;DHT22;2509;49.902;8.600;2023-04-01T16:16:40;11.90;99.90
4985;DHT22;2509;49.902;8.600;2023-04-01T16:19:51;11.90;99.90
4985;DHT22;2509;49.902;8.600;2023-04-01T16:22:57;11.80;99.90
4985;DHT22;2509;49.902;8.600;2023-04-01T16:26:06;11.80;99.90
4985;DHT22;2509;49.902;8.600;2023-04-01T16:29:17;11.70;99.90
4985;DHT22;2509;49.902;8.600;2023-04-01T16:32:28;11.70;99.90
4985;DHT22;2509;49.902;8.600;2023-04-01T16:35:41;11.70;99.90
4985;DHT22;2509;49.902;8.600;2023-04-01T16:38:49;11.70;99.90
4985;DHT22;2509;49.902;8.600;2023-04-01T16:42:13;11.70;99.90
4985;DHT22;2509;49.902;8.600;2023-04-01T16:45:25;11.70;99.90
4985;DHT22;2509;49.902;8.600;2023-04-01T16:48:35;11.70;99.90
4985;DHT22;2509;49.902;8.600;2023-04-01T16:51:47;11.70;99.90
4985;DHT22;2509;49.902;8.600;2023-04-01T16:54:53;11.60;99.90
4985;DHT22;2509;49.902;8.600;2023-04-01T16:58:00;11.60;99.90
4985;DHT22;2509;49.902;8.600;2023-04-01T17:01:05;11.60;99.90
4985;DHT22;2509;49.902;8.600;2023-04-01T17:04:14;11.60;99.90
4985;DHT22;2509;49.902;8.600;2023-04-01T17:07:26;11.50;99.90
4985;DHT22;2509;49.902;8.600;2023-04-01T17:10:37;11.50;99.90
4985;DHT22;2509;49.902;8.600;2023-04-01T17:13:46;11.40;99.90
4985;DHT22;2509;49.902;8.600;2023-04-01T17:17:03;11.40;99.90
4985;DHT22;2509;49.902;8.600;2023-04-01T17:20:12;11.30;99.90
4985;DHT22;2509;49.902;8.600;2023-04-01T17:23:23;11.30;99.90
4985;DHT22;2509;49.902;8.600;2023-04-01T17:26:33;11.30;99.90
4985;DHT22;2509;49.902;8.600;2023-04-01T17:29:59;11.30;99.90
4985;DHT22;2509;49.902;8.600;2023-04-01T17:33:23;11.30;99.90
4985;DHT22;2509;49.902;8.600;2023-04-01T17:36:36;11.30;99.90
4985;DHT22;2509;49.902;8.600;2023-04-01T17:39:57;11.30;99.90
4985;DHT22;2509;49.902;8.600;2023-04-01T17:43:08;11.30;99.90
4985;DHT22;2509;49.902;8.600;2023-04-01T17:46:28;11.30;99.90
4985;DHT22;2509;49.902;8.600;2023-04-01T17:49:37;11.20;99.90
4985;DHT22;2509;49.902;8.600;2023-04-01T17:52:44;11.20;99.90
4985;DHT22;2509;49.902;8.600;2023-04-01T17:55:58;11.20;99.90
4985;DHT22;2509;49.902;8.600;2023-04-01T17:59:09;11.20;99.90
4985;DHT22;2509;49.902;8.600;2023-04-01T18:02:21;11.20;99.90
4985;DHT22;2509;49.902;8.600;2023-04-01T18:05:41;11.20;99.90
4985;DHT22;2509;49.902;8.600;2023-04-01T18:08:57;11.20;99.90
4985;DHT22;2509;49.902;8.600;2023-04-01T18:12:06;11.10;99.90
4985;DHT22;2509;49.902;8.600;2023-04-01T18:15:19;11.10;99.90
4985;DHT22;2509;49.902;8.600;2023-04-01T18:18:40;11.10;99.90
4985;DHT22;2509;49.902;8.600;2023-04-01T18:21:48;11.10;99.90
4985;DHT22;2509;49.902;8.600;2023-04-01T18:24:58;11.00;99.90
4985;DHT22;2509;49.902;8.600;2023-04-01T18:28:17;11.00;99.90
4985;DHT22;2509;49.902;8.600;2023-04-01T18:31:23;11.00;99.90
4985;DHT22;2509;49.902;8.600;2023-04-01T18:34:41;11.00;99.90
4985;DHT22;2509;49.902;8.600;2023-04-01T18:37:49;11.00;99.90
4985;DHT22;2509;49.902;8.600;2023-04-01T18:41:04;10.90;99.90
4985;DHT22;2509;49.902;8.600;2023-04-01T18:44:23;10.90;99.90
4985;DHT22;2509;49.902;8.600;2023-04-01T18:47:38;10.90;99.90
4985;DHT22;2509;49.902;8.600;2023-04-01T18:50:51;10.90;99.90
4985;DHT22;2509;49.902;8.600;2023-04-01T18:53:57;10.80;99.90
4985;DHT22;2509;49.902;8.600;2023-04-01T18:57:07;10.80;99.90
4985;DHT22;2509;49.902;8.600;2023-04-01T19:00:14;10.80;99.90
4985;DHT22;2509;49.902;8.600;2023-04-01T19:03:21;10.80;99.90
4985;DHT22;2509;49.902;8.600;2023-04-01T19:06:30;10.80;99.90
4985;DHT22;2509;49.902;8.600;2023-04-01T19:09:44;10.80;99.90
4985;DHT22;2509;49.902;8.600;2023-04-01T19:12:57;10.80;99.90
4985;DHT22;2509;49.902;8.600;2023-04-01T19:16:10;10.70;99.90
4985;DHT22;2509;49.902;8.600;2023-04-01T19:19:29;10.70;99.90
4985;DHT22;2509;49.902;8.600;2023-04-01T19:22:56;10.70;99.90
4985;DHT22;2509;49.902;8.600;2023-04-01T19:26:01;10.60;99.90
4985;DHT22;2509;49.902;8.600;2023-04-01T19:29:15;10.60;99.90
4985;DHT22;2509;49.902;8.600;2023-04-01T19:32:27;10.60;99.90
4985;DHT22;2509;49.902;8.600;2023-04-01T19:35:39;10.60;99.90
4985;DHT22;2509;49.902;8.600;2023-04-01T19:38:53;10.50;99.90
4985;DHT22;2509;49.902;8.600;2023-04-01T19:42:03;10.50;99.90
4985;DHT22;2509;49.902;8.600;2023-04-01T19:45:20;10.40;99.90
4985;DHT22;2509;49.902;8.600;2023-04-01T19:48:38;10.40;99.90
4985;DHT22;2509;49.902;8.600;2023-04-01T19:51:48;10.40;99.90
4985;DHT22;2509;49.902;8.600;2023-04-01T19:54:57;10.40;99.90
4985;DHT22;2509;49.902;8.600;2023-04-01T19:58:05;10.40;99.90
4985;DHT22;2509;49.902;8.600;2023-04-01T20:01:16;10.30;99.90
4985;DHT22;2509;49.902;8.600;2023-04-01T20:04:24;10.30;99.90
4985;DHT22;2509;49.902;8.600;2023-04-01T20:07:32;10.30;99.90
4985;DHT22;2509;49.902;8.600;2023-04-01T20:10:43;10.30;99.90
4985;DHT22;2509;49.902;8.600;2023-04-01T20:13:56;10.30;99.90
4985;DHT22;2509;49.902;8.600;2023-04-01T20:17:06;10.20;99.90
4985;DHT22;2509;49.902;8.600;2023-04-01T20:20:19;10.20;99.90
4985;DHT22;2509;49.902;8.600;2023-04-01T20:23:30;10.20;99.90
4985;DHT22;2509;49.902;8.600;2023-04-01T20:26:37;10.20;99.90
4985;DHT22;2509;49.902;8.600;2023-04-01T20:29:54;10.20;99.90
4985;DHT22;2509;49.902;8.600;2023-04-01T20:33:07;10.20;99.90
4985;DHT22;2509;49.902;8.600;2023-04-01T20:36:20;10.20;99.90
4985;DHT22;2509;49.902;8.600;2023-04-01T20:39:39;10.20;99.90
4985;DHT22;2509;49.902;8.600;2023-04-01T20:42:56;10.20;99.90
4985;DHT22;2509;49.902;8.600;2023-04-01T20:46:01;10.20;99.90
4985;DHT22;2509;49.902;8.600;2023-04-01T20:49:30;10.20;99.90
4985;DHT22;2509;49.902;8.600;2023-04-01T20:52:38;10.20;99.90
4985;DHT22;2509;49.902;8.600;2023-04-01T20:56:09;10.20;99.90
4985;DHT22;2509;49.902;8.600;2023-04-01T20:59:56;10.20;99.90
4985;DHT22;2509;49.902;8.600;2023-04-01T21:03:11;10.10;99.90
4985;DHT22;2509;49.902;8.600;2023-04-01T21:06:52;10.10;99.90
4985;DHT22;2509;49.902;8.600;2023-04-01T21:10:05;10.10;99.90
4985;DHT22;2509;49.902;8.600;2023-04-01T21:13:19;10.10;99.90
4985;DHT22;2509;49.902;8.600;2023-04-01T21:16:40;10.10;99.90
4985;DHT22;2509;49.902;8.600;2023-04-01T21:19:55;10.10;99.90
4985;DHT22;2509;49.902;8.600;2023-04-01T21:23:17;10.10;99.90
4985;DHT22;2509;49.902;8.600;2023-04-01T21:26:29;10.10;99.90
4985;DHT22;2509;49.902;8.600;2023-04-01T21:29:43;10.10;99.90
4985;DHT22;2509;49.902;8.600;2023-04-01T21:33:07;10.10;99.90
4985;DHT22;2509;49.902;8.600;2023-04-01T21:36:24;10.10;99.90
4985;DHT22;2509;49.902;8.600;2023-04-01T21:39:45;10.10;99.90
4985;DHT22;2509;49.902;8.600;2023-04-01T21:42:52;10.10;99.90
4985;DHT22;2509;49.902;8.600;2023-04-01T21:46:17;10.10;99.90
4985;DHT22;2509;49.902;8.600;2023-04-01T21:49:40;10.10;99.90
4985;DHT22;2509;49.902;8.600;2023-04-01T21:52:58;10.10;99.90
4985;DHT22;2509;49.902;8.600;2023-04-01T22:03:38;10.10;99.90
4985;DHT22;2509;49.902;8.600;2023-04-01T22:06:47;10.10;99.90